Stornoway — WDC7908 — position and weather

sailwx.info

Track history (hours):
 
Tides and Currents Weather Stations Pressure Air Temp Water Temp Dewpoint Dewpoint Depression Visibility Wind Speed Wind Dir Waves Ship Positions

Stornoway

Owner: Matthews, William, Bainbridge Island, WA. More information available from US FCC via Universal Licensing System and Coast Guard Vessel Documentation Center.

Last reported at 2015-Apr-21 15:33 UTC. Time now 2015-May-05 11:16 UTC.
Position N 47°40' W 122°29'.
Warning: this ship's position is 13 days out of date.

Length 13 m.

Type: Pleasure craft. MMSI: 367078810.

Date/timePositionNaut miles runAvg speedWind from/ knotsBaromVisibWave heightAir tempDewpointWater temp
2015-Apr-21 15:33N 47°40' W 122°29'8 7.6
2015-Apr-21 14:33N 47°33' W 122°29'0 0.0
2015-Apr-21 13:33N 47°33' W 122°29'0 0.0
2015-Apr-21 12:33N 47°33' W 122°29'0 0.0
2015-Apr-21 11:33N 47°33' W 122°29'0 0.0
2015-Apr-21 10:33N 47°33' W 122°29'0 0.0
2015-Apr-21 09:33N 47°33' W 122°29'0 0.0
2015-Apr-21 08:33N 47°33' W 122°29'0 0.0
2015-Apr-21 07:30N 47°33' W 122°29'0 0.0
2015-Apr-21 06:33N 47°33' W 122°29'0 0.0
2015-Apr-21 05:33N 47°33' W 122°29'0 0.0
2015-Apr-21 04:33N 47°33' W 122°29'0 0.0
2015-Apr-21 03:27N 47°33' W 122°29'0 0.0
2015-Apr-21 02:33N 47°33' W 122°29'0 0.0
2015-Apr-21 01:33N 47°33' W 122°29'0 0.0
2015-Apr-21 00:33N 47°33' W 122°29'0 0.0
2015-Apr-20 23:33N 47°33' W 122°29'0 0.0
2015-Apr-20 22:33N 47°33' W 122°29'0 0.0
2015-Apr-20 21:33N 47°33' W 122°29'0 0.0
2015-Apr-20 20:34N 47°33' W 122°29'0 0.0
2015-Apr-20 19:33N 47°33' W 122°29'0 0.0
2015-Apr-20 18:33N 47°33' W 122°29'0 0.0
2015-Apr-20 17:30N 47°33' W 122°29'0 0.0
2015-Apr-20 16:34N 47°33' W 122°29'1 0.6
2015-Apr-20 15:34N 47°32' W 122°29'1 0.9
2015-Apr-20 14:32N 47°32' W 122°30'0 0.0
2015-Apr-20 13:23N 47°32' W 122°30'0 0.0
2015-Apr-20 12:17N 47°32' W 122°30'0 0.0
2015-Apr-20 11:14N 47°32' W 122°30'0 0.0
2015-Apr-20 10:20N 47°32' W 122°30'0 0.0
2015-Apr-20 07:14N 47°32' W 122°30'0 0.0
2015-Apr-20 05:29N 47°32' W 122°30'0 0.0
2015-Apr-20 04:32N 47°32' W 122°30'0 0.0
2015-Apr-20 03:08N 47°32' W 122°30'0 0.0
2015-Apr-20 02:20N 47°32' W 122°30'0 0.0
2015-Apr-20 00:26N 47°32' W 122°30'0 0.0
2015-Apr-19 21:16N 47°32' W 122°30'5 7.1
2015-Apr-19 20:33N 47°36' W 122°35'  
Track history (hours):
 
Tides and Currents Weather Stations Pressure Air Temp Water Temp Dewpoint Dewpoint Depression Visibility Wind Speed Wind Dir Waves Ship Positions

Stornoway

Owner: Matthews, William, Bainbridge Island, WA. More information available from US FCC via Universal Licensing System and Coast Guard Vessel Documentation Center.

Last reported at 2015-Apr-21 15:33 UTC. Time now 2015-May-05 11:16 UTC.
Position N 47°40' W 122°29'.
Warning: this ship's position is 13 days out of date.

Length 13 m.

Type: Pleasure craft. MMSI: 367078810.

Date/timePositionNaut miles runAvg speedWind from/ knotsBaromVisibWave heightAir tempDewpointWater temp
2015-Apr-21 15:33N 47°40' W 122°29'8 7.6
2015-Apr-21 14:33N 47°33' W 122°29'0 0.0
2015-Apr-21 13:33N 47°33' W 122°29'0 0.0
2015-Apr-21 12:33N 47°33' W 122°29'0 0.0
2015-Apr-21 11:33N 47°33' W 122°29'0 0.0
2015-Apr-21 10:33N 47°33' W 122°29'0 0.0
2015-Apr-21 09:33N 47°33' W 122°29'0 0.0
2015-Apr-21 08:33N 47°33' W 122°29'0 0.0
2015-Apr-21 07:30N 47°33' W 122°29'0 0.0
2015-Apr-21 06:33N 47°33' W 122°29'0 0.0
2015-Apr-21 05:33N 47°33' W 122°29'0 0.0
2015-Apr-21 04:33N 47°33' W 122°29'0 0.0
2015-Apr-21 03:27N 47°33' W 122°29'0 0.0
2015-Apr-21 02:33N 47°33' W 122°29'0 0.0
2015-Apr-21 01:33N 47°33' W 122°29'0 0.0
2015-Apr-21 00:33N 47°33' W 122°29'0 0.0
2015-Apr-20 23:33N 47°33' W 122°29'0 0.0
2015-Apr-20 22:33N 47°33' W 122°29'0 0.0
2015-Apr-20 21:33N 47°33' W 122°29'0 0.0
2015-Apr-20 20:34N 47°33' W 122°29'0 0.0
2015-Apr-20 19:33N 47°33' W 122°29'0 0.0
2015-Apr-20 18:33N 47°33' W 122°29'0 0.0
2015-Apr-20 17:30N 47°33' W 122°29'0 0.0
2015-Apr-20 16:34N 47°33' W 122°29'1 0.6
2015-Apr-20 15:34N 47°32' W 122°29'1 0.9
2015-Apr-20 14:32N 47°32' W 122°30'0 0.0
2015-Apr-20 13:23N 47°32' W 122°30'0 0.0
2015-Apr-20 12:17N 47°32' W 122°30'0 0.0
2015-Apr-20 11:14N 47°32' W 122°30'0 0.0
2015-Apr-20 10:20N 47°32' W 122°30'0 0.0
2015-Apr-20 07:14N 47°32' W 122°30'0 0.0
2015-Apr-20 05:29N 47°32' W 122°30'0 0.0
2015-Apr-20 04:32N 47°32' W 122°30'0 0.0
2015-Apr-20 03:08N 47°32' W 122°30'0 0.0
2015-Apr-20 02:20N 47°32' W 122°30'0 0.0
2015-Apr-20 00:26N 47°32' W 122°30'0 0.0
2015-Apr-19 21:16N 47°32' W 122°30'5 7.1
2015-Apr-19 20:33N 47°36' W 122°35'  

Dump ship's entire track history